Time;durP1;ratioP1;P1;durP2;ratioP2;P2;SDS_P1;SDS_P2;PMS_P1;PMS_P2;Temp;Humidity;BMP_temperature;BMP_pressure;BME280_temperature;BME280_humidity;BME280_pressure;Samples;Min_cycle;Max_cycle;Signal;HPM_P1;HPM_P2
2022/07/29 00:01:52;;;;;;;20.38;8.50;;;18.30;99.90;;;;;;5068629;28;20424;-74
2022/07/29 00:04:19;;;;;;;12.43;8.77;;;18.20;99.90;;;;;;5068197;28;20040;-76
2022/07/29 00:06:45;;;;;;;12.75;8.30;;;18.10;99.90;;;;;;5068761;28;20557;-76
2022/07/29 00:09:10;;;;;;;13.07;8.15;;;18.20;99.90;;;;;;5067652;28;20113;-77
2022/07/29 00:11:36;;;;;;;13.77;8.45;;;18.20;99.90;;;;;;5068539;28;20036;-75
2022/07/29 00:14:02;;;;;;;11.82;8.35;;;18.20;99.90;;;;;;5066557;28;20028;-74
2022/07/29 00:16:27;;;;;;;12.80;8.68;;;18.20;99.90;;;;;;5067855;28;20045;-75
2022/07/29 00:18:53;;;;;;;13.32;8.68;;;18.30;99.90;;;;;;5067685;28;20055;-76
2022/07/29 00:21:19;;;;;;;14.70;8.90;;;18.30;99.90;;;;;;5068591;28;20028;-75
2022/07/29 00:23:44;;;;;;;13.15;8.40;;;18.30;99.90;;;;;;5067806;28;20029;-74
2022/07/29 00:26:10;;;;;;;11.93;8.65;;;18.30;99.90;;;;;;5067671;28;20453;-77
2022/07/29 00:28:36;;;;;;;13.88;8.93;;;18.30;99.90;;;;;;5066984;28;20031;-77
2022/07/29 00:31:01;;;;;;;17.02;9.13;;;18.20;99.90;;;;;;5068540;28;20471;-75
2022/07/29 00:33:28;;;;;;;14.80;8.82;;;18.20;99.90;;;;;;5068607;28;20064;-76
2022/07/29 00:35:54;;;;;;;13.48;9.15;;;18.30;99.90;;;;;;5071893;28;20067;-77
2022/07/29 00:38:22;;;;;;;11.50;7.75;;;18.30;99.90;;;;;;5070781;28;20538;-76
2022/07/29 00:40:48;;;;;;;12.35;8.52;;;18.20;99.90;;;;;;5072180;28;20054;-74
2022/07/29 00:43:14;;;;;;;15.60;9.63;;;18.30;99.90;;;;;;5071442;28;20530;-73
2022/07/29 00:45:41;;;;;;;13.40;8.75;;;18.30;99.90;;;;;;5070494;28;20060;-76
2022/07/29 00:48:08;;;;;;;13.45;8.32;;;18.30;99.90;;;;;;5070142;28;20047;-74
2022/07/29 00:50:34;;;;;;;10.27;7.20;;;18.40;99.90;;;;;;5071383;28;20108;-77
2022/07/29 00:53:01;;;;;;;12.10;8.27;;;18.50;99.90;;;;;;5071190;28;20543;-77
2022/07/29 00:55:28;;;;;;;9.05;6.43;;;18.50;99.90;;;;;;5069880;28;20060;-76
2022/07/29 00:57:55;;;;;;;9.30;6.35;;;18.60;99.90;;;;;;5073800;28;20046;-77
2022/07/29 01:00:24;;;;;;;9.45;6.68;;;18.80;99.90;;;;;;5070009;28;20074;-77
2022/07/29 01:02:50;;;;;;;9.93;6.22;;;18.80;99.90;;;;;;5071468;28;20078;-76
2022/07/29 01:05:22;;;;;;;10.57;6.40;;;18.90;99.90;;;;;;5069758;28;20029;-76
2022/07/29 01:07:51;;;;;;;10.77;6.65;;;18.90;99.90;;;;;;5071009;28;20024;-75
2022/07/29 01:10:19;;;;;;;11.73;7.47;;;19.00;99.90;;;;;;5070671;28;20036;-75
2022/07/29 01:12:47;;;;;;;20.08;7.40;;;18.90;99.90;;;;;;5071134;28;20036;-76
2022/07/29 01:15:13;;;;;;;15.73;8.20;;;18.80;99.90;;;;;;5069051;28;20028;-81
2022/07/29 01:17:48;;;;;;;11.73;7.50;;;18.50;99.90;;;;;;5053001;28;20047;-77
2022/07/29 01:20:37;;;;;;;15.20;7.78;;;18.40;99.90;;;;;;5051855;28;20386;-76
2022/07/29 01:23:30;;;;;;;12.18;7.20;;;18.40;99.90;;;;;;5071362;28;20031;-77
2022/07/29 01:26:21;;;;;;;12.27;7.32;;;18.40;99.90;;;;;;5071314;28;20305;-77
2022/07/29 01:29:07;;;;;;;12.00;7.85;;;18.50;99.90;;;;;;5068141;28;20036;-78
2022/07/29 01:31:44;;;;;;;10.80;7.57;;;18.40;99.90;;;;;;5070161;28;20253;-78
2022/07/29 01:34:17;;;;;;;13.77;8.63;;;18.50;99.90;;;;;;5071788;28;20028;-77
2022/07/29 01:36:48;;;;;;;11.80;8.00;;;18.40;99.90;;;;;;5069864;28;20740;-75
2022/07/29 01:39:30;;;;;;;13.20;8.32;;;18.30;99.90;;;;;;5070645;28;20114;-77
2022/07/29 01:42:08;;;;;;;15.27;8.52;;;18.30;99.90;;;;;;5070777;28;20025;-78
2022/07/29 01:44:39;;;;;;;11.70;8.13;;;18.30;99.90;;;;;;5068105;28;20020;-76
2022/07/29 01:47:15;;;;;;;15.52;8.35;;;18.30;99.90;;;;;;5069755;28;20040;-76
2022/07/29 01:49:54;;;;;;;14.70;8.23;;;18.30;99.90;;;;;;5069055;28;20534;-77
2022/07/29 01:52:34;;;;;;;15.38;8.45;;;18.30;99.90;;;;;;5070745;28;20068;-77
2022/07/29 01:55:06;;;;;;;14.13;9.50;;;18.30;99.90;;;;;;5070153;28;20033;-77
2022/07/29 01:57:35;;;;;;;12.85;9.40;;;18.30;99.90;;;;;;5069590;28;20094;-77
2022/07/29 02:00:03;;;;;;;14.65;9.63;;;18.20;99.90;;;;;;5067413;28;20123;-77
2022/07/29 02:02:31;;;;;;;15.93;9.93;;;18.10;99.90;;;;;;5062166;28;20077;-78
2022/07/29 02:04:58;;;;;;;13.60;8.75;;;18.10;99.90;;;;;;5050972;28;20032;-77
2022/07/29 02:07:28;;;;;;;14.65;9.55;;;18.10;99.90;;;;;;5068249;28;20104;-76
2022/07/29 02:09:55;;;;;;;12.07;8.88;;;18.30;99.90;;;;;;5058355;28;20487;-77
2022/07/29 02:12:23;;;;;;;12.50;8.77;;;18.30;99.90;;;;;;5068191;28;20445;-77
2022/07/29 02:14:53;;;;;;;16.77;9.48;;;18.30;99.90;;;;;;5070312;28;20070;-77
2022/07/29 02:17:27;;;;;;;13.95;9.05;;;18.30;99.90;;;;;;5067778;28;20070;-75
2022/07/29 02:19:59;;;;;;;12.70;8.80;;;18.30;99.90;;;;;;5069057;28;20120;-76
2022/07/29 02:22:28;;;;;;;14.18;9.48;;;18.20;99.90;;;;;;5068529;28;20107;-79
2022/07/29 02:24:55;;;;;;;12.20;8.65;;;18.10;99.90;;;;;;5069299;28;20364;-75
2022/07/29 02:27:22;;;;;;;15.63;8.63;;;18.00;99.90;;;;;;5066461;28;20043;-75
2022/07/29 02:29:50;;;;;;;14.68;8.73;;;18.00;99.90;;;;;;5066167;28;20378;-78
2022/07/29 02:32:17;;;;;;;13.55;8.68;;;17.90;99.90;;;;;;5063206;28;20082;-78
2022/07/29 02:34:44;;;;;;;15.00;9.07;;;17.80;99.90;;;;;;5067865;28;20485;-77
2022/07/29 02:37:11;;;;;;;15.05;9.00;;;17.90;99.90;;;;;;5067510;28;20040;-77
2022/07/29 02:39:39;;;;;;;11.63;8.57;;;17.90;99.90;;;;;;5069312;28;20063;-79
2022/07/29 02:42:12;;;;;;;18.98;9.57;;;17.90;99.90;;;;;;5069390;28;20028;-77
2022/07/29 02:44:38;;;;;;;13.57;8.95;;;17.90;99.90;;;;;;5067332;28;20718;-79
2022/07/29 02:47:16;;;;;;;15.10;9.30;;;17.90;99.90;;;;;;5067849;28;20398;-78
2022/07/29 02:50:02;;;;;;;13.00;9.18;;;17.80;99.90;;;;;;5069691;28;20033;-78
2022/07/29 02:52:39;;;;;;;12.95;9.57;;;17.90;99.90;;;;;;5058957;28;20056;-75
2022/07/29 02:55:24;;;;;;;17.08;10.63;;;17.90;99.90;;;;;;5070263;28;20024;-76
2022/07/29 02:57:54;;;;;;;14.63;10.40;;;17.80;99.90;;;;;;5050366;28;20029;-79
2022/07/29 03:00:20;;;;;;;;;;;17.70;99.90;;;;;;5051857;28;20033;-77
2022/07/29 03:02:52;;;;;;;12.32;9.43;;;17.70;99.90;;;;;;5062871;28;19963;-78
2022/07/29 03:05:20;;;;;;;15.73;9.77;;;17.60;99.90;;;;;;5068113;28;20020;-74
2022/07/29 03:07:52;;;;;;;16.63;10.68;;;17.60;99.90;;;;;;5066543;28;20032;-76
2022/07/29 03:10:18;;;;;;;16.05;9.68;;;17.60;99.90;;;;;;5056636;28;20029;-76
2022/07/29 03:12:45;;;;;;;17.80;10.00;;;17.40;99.90;;;;;;5069452;28;20033;-75
2022/07/29 03:15:12;;;;;;;22.38;9.55;;;17.40;99.90;;;;;;5068452;28;20074;-75
2022/07/29 03:17:39;;;;;;;14.40;9.63;;;17.40;99.90;;;;;;5066550;28;20036;-75
2022/07/29 03:20:06;;;;;;;15.50;9.68;;;17.30;99.90;;;;;;5069698;28;20036;-75
2022/07/29 03:22:32;;;;;;;15.65;9.63;;;17.40;99.90;;;;;;5068838;28;20029;-76
2022/07/29 03:24:57;;;;;;;12.95;9.60;;;17.30;99.90;;;;;;5068961;28;20029;-76
2022/07/29 03:27:23;;;;;;;15.80;9.32;;;17.30;99.90;;;;;;5050100;28;20040;-75
2022/07/29 03:29:49;;;;;;;13.45;9.10;;;17.30;99.90;;;;;;5069705;28;20427;-75
2022/07/29 03:32:14;;;;;;;17.58;9.40;;;17.20;99.90;;;;;;5068841;28;20522;-75
2022/07/29 03:34:40;;;;;;;16.73;9.73;;;17.20;99.90;;;;;;5068624;28;20688;-76
2022/07/29 03:37:06;;;;;;;14.60;10.68;;;17.20;99.90;;;;;;5068132;28;20123;-76
2022/07/29 03:39:38;;;;;;;16.38;10.00;;;17.10;99.90;;;;;;5067428;28;20060;-77
2022/07/29 03:42:06;;;;;;;16.00;9.68;;;17.10;99.90;;;;;;5068593;28;20510;-75
2022/07/29 03:44:33;;;;;;;19.00;10.48;;;17.10;99.90;;;;;;5068633;28;20017;-76
2022/07/29 03:47:01;;;;;;;15.93;11.73;;;17.10;99.90;;;;;;5068473;28;20104;-75
2022/07/29 03:49:29;;;;;;;16.85;11.27;;;17.00;99.90;;;;;;5068593;28;20037;-76
2022/07/29 03:51:55;;;;;;;14.95;10.73;;;17.00;99.90;;;;;;5068458;28;20064;-75
2022/07/29 03:54:21;;;;;;;16.75;10.95;;;17.00;99.90;;;;;;5068240;28;20063;-75
2022/07/29 03:56:50;;;;;;;14.00;10.48;;;17.00;99.90;;;;;;5068116;28;20040;-76
2022/07/29 03:59:19;;;;;;;15.23;10.93;;;16.90;99.90;;;;;;5068412;28;20036;-76
2022/07/29 04:01:46;;;;;;;17.02;9.93;;;16.90;99.90;;;;;;5049740;28;20067;-75
2022/07/29 04:04:12;;;;;;;15.63;10.55;;;16.80;99.90;;;;;;5069718;28;20108;-75
2022/07/29 04:06:42;;;;;;;13.98;10.68;;;16.70;99.90;;;;;;5067835;28;20105;-75
2022/07/29 04:09:09;;;;;;;20.48;10.35;;;16.70;99.90;;;;;;5071512;28;21513;-77
2022/07/29 04:11:37;;;;;;;16.23;10.95;;;16.80;99.90;;;;;;5071782;28;20032;-75
2022/07/29 04:14:03;;;;;;;17.30;11.35;;;16.80;99.90;;;;;;5073167;28;20020;-75
2022/07/29 04:16:29;;;;;;;17.45;11.68;;;16.70;99.90;;;;;;5070237;28;20044;-76
2022/07/29 04:18:54;;;;;;;14.65;11.05;;;16.70;99.90;;;;;;5073256;28;20673;-75
2022/07/29 04:21:20;;;;;;;13.80;10.60;;;16.70;99.90;;;;;;5072404;28;20036;-76
2022/07/29 04:23:49;;;;;;;16.88;10.63;;;16.70;99.90;;;;;;5071814;28;20028;-76
2022/07/29 04:26:16;;;;;;;16.65;10.73;;;16.80;99.90;;;;;;5072145;28;20119;-77
2022/07/29 04:28:42;;;;;;;14.20;10.25;;;16.90;99.90;;;;;;5072351;28;20032;-77
2022/07/29 04:31:09;;;;;;;15.55;10.45;;;17.00;99.90;;;;;;5071735;28;20513;-75
2022/07/29 04:33:34;;;;;;;18.77;10.77;;;17.00;99.90;;;;;;5071343;28;20471;-76
2022/07/29 04:36:00;;;;;;;16.92;10.60;;;17.00;99.90;;;;;;5053356;28;20043;-76
2022/07/29 04:38:25;;;;;;;14.63;10.68;;;17.00;99.90;;;;;;5071785;28;20028;-73
2022/07/29 04:40:51;;;;;;;15.65;11.07;;;17.00;99.90;;;;;;5053382;28;20029;-76
2022/07/29 04:43:17;;;;;;;18.15;12.10;;;17.10;99.90;;;;;;5072746;28;20035;-75
2022/07/29 04:45:43;;;;;;;22.10;13.55;;;17.10;99.90;;;;;;5065649;28;20103;-77
2022/07/29 04:48:08;;;;;;;21.35;14.25;;;17.10;99.90;;;;;;5069191;28;20045;-76
2022/07/29 04:50:37;;;;;;;20.90;13.23;;;17.10;99.90;;;;;;5066492;28;20626;-76
2022/07/29 04:53:03;;;;;;;18.98;12.50;;;17.10;99.90;;;;;;5072755;28;20024;-77
2022/07/29 04:55:28;;;;;;;17.52;12.35;;;17.20;99.90;;;;;;5073584;28;20035;-76
2022/07/29 04:57:54;;;;;;;20.33;12.73;;;17.40;99.90;;;;;;5071486;28;20024;-75
2022/07/29 05:00:20;;;;;;;20.02;11.20;;;17.40;99.90;;;;;;5072450;28;20074;-73
2022/07/29 05:02:45;;;;;;;18.98;10.80;;;17.40;99.90;;;;;;5070971;28;20486;-76
2022/07/29 05:05:11;;;;;;;19.17;11.10;;;17.50;99.90;;;;;;5070312;28;20035;-77
2022/07/29 05:07:37;;;;;;;17.25;11.32;;;17.70;99.90;;;;;;5071415;28;20040;-75
2022/07/29 05:10:03;;;;;;;17.02;10.93;;;17.70;99.90;;;;;;5072282;28;20021;-76
2022/07/29 05:12:29;;;;;;;17.02;11.18;;;17.70;99.90;;;;;;5071335;28;20028;-76
2022/07/29 05:14:54;;;;;;;15.10;10.63;;;17.70;99.90;;;;;;5072093;28;20032;-74
2022/07/29 05:17:20;;;;;;;17.25;11.35;;;17.80;99.90;;;;;;5071878;28;20137;-76
2022/07/29 05:19:46;;;;;;;16.02;11.02;;;17.80;99.90;;;;;;5052183;28;20250;-76
2022/07/29 05:22:11;;;;;;;14.05;10.07;;;17.60;99.90;;;;;;5071112;28;20029;-75
2022/07/29 05:24:37;;;;;;;15.82;11.02;;;17.50;99.90;;;;;;5071352;28;20024;-75
2022/07/29 05:27:03;;;;;;;16.08;9.75;;;17.60;99.90;;;;;;5053154;28;20033;-77
2022/07/29 05:29:29;;;;;;;16.52;10.98;;;17.60;99.90;;;;;;5070072;28;20040;-74
2022/07/29 05:31:54;;;;;;;14.57;10.35;;;17.60;99.90;;;;;;5071786;28;20113;-75
2022/07/29 05:34:20;;;;;;;15.48;10.40;;;17.70;99.90;;;;;;5069238;28;20029;-76
2022/07/29 05:36:46;;;;;;;17.92;11.85;;;17.80;99.90;;;;;;5070840;28;20021;-76
2022/07/29 05:39:12;;;;;;;17.52;10.75;;;18.00;99.90;;;;;;5065810;28;20021;-74
2022/07/29 05:41:38;;;;;;;19.00;10.70;;;18.10;99.90;;;;;;5064878;28;20085;-76
2022/07/29 05:44:04;;;;;;;14.55;10.73;;;18.20;99.90;;;;;;5071586;28;20025;-75
2022/07/29 05:46:30;;;;;;;16.65;11.00;;;18.30;99.90;;;;;;5070620;28;20035;-75
2022/07/29 05:48:56;;;;;;;15.82;10.35;;;18.40;99.90;;;;;;5070358;28;20041;-78
2022/07/29 05:51:21;;;;;;;16.67;10.88;;;18.40;99.90;;;;;;5071516;28;20033;-76
2022/07/29 05:53:47;;;;;;;14.88;10.25;;;18.50;99.90;;;;;;5065378;28;20033;-76
2022/07/29 05:56:13;;;;;;;20.17;11.07;;;18.50;99.90;;;;;;5069360;28;20103;-76
2022/07/29 05:58:38;;;;;;;17.33;10.05;;;18.60;99.90;;;;;;5069317;28;20418;-75
2022/07/29 06:01:04;;;;;;;14.15;10.18;;;18.60;99.90;;;;;;5069737;28;20036;-78
2022/07/29 06:03:30;;;;;;;18.05;11.05;;;18.70;99.90;;;;;;5068832;28;20040;-75
2022/07/29 06:05:55;;;;;;;16.70;9.57;;;18.70;99.90;;;;;;5071068;28;20436;-76
2022/07/29 06:08:21;;;;;;;15.50;10.73;;;18.80;99.90;;;;;;5071165;28;20040;-76
2022/07/29 06:10:47;;;;;;;22.10;10.52;;;18.80;99.90;;;;;;5070367;28;20193;-76
2022/07/29 06:13:15;;;;;;;17.00;10.85;;;18.80;99.90;;;;;;5071166;28;20633;-77
2022/07/29 06:15:41;;;;;;;15.70;10.25;;;18.90;99.90;;;;;;5069884;28;20503;-76
2022/07/29 06:18:09;;;;;;;15.32;9.93;;;18.90;99.90;;;;;;5069982;28;20086;-76
2022/07/29 06:20:35;;;;;;;14.18;9.95;;;18.70;99.90;;;;;;5070215;28;20016;-77
2022/07/29 06:23:01;;;;;;;13.57;9.70;;;18.50;99.90;;;;;;5069888;28;20394;-76
2022/07/29 06:25:30;;;;;;;15.95;10.13;;;18.50;99.90;;;;;;5070773;28;20066;-76
2022/07/29 06:27:56;;;;;;;14.95;10.40;;;18.60;99.90;;;;;;5070361;28;20090;-75
2022/07/29 06:30:22;;;;;;;14.15;10.15;;;18.80;99.90;;;;;;5070129;28;20479;-77
2022/07/29 06:32:47;;;;;;;14.35;9.18;;;18.90;99.90;;;;;;5070060;28;20103;-78
2022/07/29 06:35:13;;;;;;;16.58;10.43;;;19.10;99.90;;;;;;5070665;28;20056;-75
2022/07/29 06:37:39;;;;;;;17.67;9.32;;;19.40;99.90;;;;;;5069097;28;20034;-77
2022/07/29 06:42:49;;;;;;;12.85;8.60;;;19.70;99.90;;;;;;5068750;28;20251;-77
2022/07/29 06:45:15;;;;;;;14.52;8.35;;;19.70;99.90;;;;;;5069170;28;20490;-75
2022/07/29 06:47:41;;;;;;;14.50;7.88;;;19.80;99.90;;;;;;5067430;28;20509;-73
2022/07/29 06:50:11;;;;;;;12.52;7.45;;;19.90;99.90;;;;;;5068663;28;20036;-71
2022/07/29 06:52:37;;;;;;;20.50;7.63;;;19.90;99.90;;;;;;5064862;28;20040;-72
2022/07/29 06:55:03;;;;;;;11.15;7.82;;;20.00;99.90;;;;;;5052011;28;20029;-73
2022/07/29 06:57:29;;;;;;;12.43;7.60;;;20.10;99.90;;;;;;5069677;28;20032;-73
2022/07/29 06:59:56;;;;;;;11.25;6.82;;;20.20;99.90;;;;;;5069227;28;20025;-72
2022/07/29 07:02:22;;;;;;;11.40;6.68;;;20.20;99.90;;;;;;5068102;28;20051;-73
2022/07/29 07:04:48;;;;;;;15.68;6.72;;;20.20;99.90;;;;;;5068548;28;20060;-72
2022/07/29 07:07:13;;;;;;;11.15;7.15;;;20.20;99.90;;;;;;5070359;28;20032;-73
2022/07/29 07:09:39;;;;;;;10.30;6.97;;;20.20;99.90;;;;;;5069251;28;20032;-73
2022/07/29 07:12:05;;;;;;;10.20;6.03;;;20.20;99.90;;;;;;5051986;28;20032;-74
2022/07/29 07:14:31;;;;;;;9.40;6.20;;;20.40;99.90;;;;;;5068744;28;20035;-75
2022/07/29 07:16:57;;;;;;;9.55;6.00;;;20.70;99.90;;;;;;5067745;28;20060;-73
2022/07/29 07:19:23;;;;;;;10.13;5.43;;;21.00;99.90;;;;;;5068607;28;20544;-75
2022/07/29 07:21:48;;;;;;;9.57;4.63;;;21.30;99.90;;;;;;5049358;28;20141;-73
2022/07/29 07:24:14;;;;;;;7.60;4.70;;;21.70;99.90;;;;;;5067918;28;20033;-72
2022/07/29 07:26:40;;;;;;;8.60;5.35;;;22.00;99.90;;;;;;5068241;28;20060;-72
2022/07/29 07:29:06;;;;;;;11.77;5.05;;;22.30;99.90;;;;;;5066613;28;20037;-74
2022/07/29 07:31:31;;;;;;;4.78;3.60;;;22.50;99.90;;;;;;5066703;28;20028;-73
2022/07/29 07:33:57;;;;;;;10.77;4.32;;;22.80;99.90;;;;;;5051063;28;20060;-72
2022/07/29 07:36:23;;;;;;;6.28;3.95;;;22.70;99.90;;;;;;5069632;28;20082;-72
2022/07/29 07:38:49;;;;;;;6.93;4.13;;;22.90;99.90;;;;;;5068555;28;20032;-73
2022/07/29 07:41:15;;;;;;;6.53;4.25;;;23.00;99.90;;;;;;5068764;28;20464;-70
2022/07/29 07:43:40;;;;;;;8.82;4.22;;;23.20;99.90;;;;;;5067683;28;20033;-74
2022/07/29 07:46:06;;;;;;;6.15;3.83;;;23.00;99.90;;;;;;5069232;28;20029;-73
2022/07/29 07:48:34;;;;;;;5.97;3.80;;;23.00;99.90;;;;;;5067696;28;20044;-72
2022/07/29 07:51:00;;;;;;;5.57;3.55;;;23.10;99.90;;;;;;5068239;28;20063;-75
2022/07/29 07:53:26;;;;;;;4.22;3.42;;;23.50;99.90;;;;;;5069261;28;20064;-72
2022/07/29 07:55:51;;;;;;;7.05;3.67;;;23.80;99.90;;;;;;5067950;28;20079;-72
2022/07/29 07:58:17;;;;;;;10.30;4.03;;;24.10;99.90;;;;;;5069630;28;20083;-73
2022/07/29 08:00:43;;;;;;;4.50;3.40;;;24.20;99.90;;;;;;5068454;28;20128;-75
2022/07/29 08:03:12;;;;;;;7.63;3.63;;;24.00;99.90;;;;;;5068299;28;20033;-75
2022/07/29 08:05:38;;;;;;;4.85;3.65;;;24.00;99.90;;;;;;5067882;28;20078;-73
2022/07/29 08:08:04;;;;;;;5.93;3.90;;;23.90;99.90;;;;;;5068927;28;20028;-75
2022/07/29 08:13:27;;;;;;;7.10;3.80;;;23.50;99.90;;;;;;5055419;28;20044;-74
2022/07/29 08:16:11;;;;;;;6.75;3.90;;;23.50;99.90;;;;;;5067795;28;20095;-74
2022/07/29 08:18:38;;;;;;;4.72;3.70;;;23.40;99.90;;;;;;5067872;28;20421;-75
2022/07/29 08:21:04;;;;;;;5.97;3.50;;;23.60;99.90;;;;;;5068994;28;20043;-75
2022/07/29 08:23:39;;;;;;;5.70;3.80;;;23.60;99.90;;;;;;5069151;28;20036;-72
2022/07/29 08:26:12;;;;;;;6.68;3.63;;;23.50;99.90;;;;;;5069138;28;20032;-72
2022/07/29 08:28:39;;;;;;;3.90;3.33;;;23.30;99.90;;;;;;5068264;28;20387;-74
2022/07/29 08:31:05;;;;;;;9.30;3.70;;;23.40;99.90;;;;;;5069033;28;20581;-73
2022/07/29 08:33:31;;;;;;;5.90;4.10;;;23.50;99.90;;;;;;5068050;28;20056;-73
2022/07/29 08:35:56;;;;;;;5.40;3.80;;;23.40;99.90;;;;;;5068228;28;20102;-75
2022/07/29 08:38:22;;;;;;;5.75;3.92;;;23.40;99.90;;;;;;5069016;28;20028;-70
2022/07/29 08:40:48;;;;;;;6.40;4.07;;;23.60;99.90;;;;;;5068159;28;20454;-73
2022/07/29 08:43:13;;;;;;;8.18;4.22;;;23.80;99.90;;;;;;5068421;28;20035;-73
2022/07/29 08:45:48;;;;;;;5.90;4.03;;;24.00;99.90;;;;;;5068080;28;20031;-76
2022/07/29 08:48:16;;;;;;;8.02;4.88;;;24.10;99.90;;;;;;5067847;28;20056;-73
2022/07/29 08:50:43;;;;;;;10.68;4.72;;;24.10;99.90;;;;;;5067965;28;20379;-72
2022/07/29 08:53:14;;;;;;;6.15;4.53;;;24.10;99.90;;;;;;5068910;28;20043;-74
2022/07/29 08:55:45;;;;;;;7.10;4.20;;;24.00;99.90;;;;;;5070305;28;20565;-77
2022/07/29 08:58:11;;;;;;;7.25;4.70;;;24.10;99.90;;;;;;5052689;28;20029;-71
2022/07/29 09:00:42;;;;;;;8.88;4.65;;;24.30;99.90;;;;;;5061762;28;20030;-72
2022/07/29 09:03:10;;;;;;;5.80;4.53;;;24.50;99.90;;;;;;5072565;28;20032;-73
2022/07/29 09:05:36;;;;;;;9.60;5.32;;;24.40;99.90;;;;;;5071398;28;20033;-73
2022/07/29 09:08:04;;;;;;;8.38;5.28;;;24.40;99.90;;;;;;5071753;28;20617;-72
2022/07/29 09:10:29;;;;;;;8.80;5.13;;;24.20;99.90;;;;;;5072370;28;20071;-72
2022/07/29 09:12:55;;;;;;;7.00;5.05;;;24.30;99.90;;;;;;5071332;28;20060;-72
2022/07/29 09:15:21;;;;;;;6.63;4.55;;;24.20;99.90;;;;;;5071783;28;20093;-71
2022/07/29 09:17:49;;;;;;;6.93;4.88;;;24.00;99.90;;;;;;5071719;28;20118;-73
2022/07/29 09:20:17;;;;;;;9.07;4.75;;;23.80;99.90;;;;;;5071543;28;20112;-73
2022/07/29 09:22:46;;;;;;;9.18;4.70;;;23.90;99.90;;;;;;5071201;28;20657;-74
2022/07/29 09:25:12;;;;;;;8.60;4.88;;;24.10;99.90;;;;;;5072127;28;20051;-73
2022/07/29 09:27:38;;;;;;;9.90;5.38;;;24.40;99.90;;;;;;5072033;28;20028;-71
2022/07/29 09:30:07;;;;;;;6.85;5.28;;;24.50;99.90;;;;;;5071171;28;20025;-72
2022/07/29 09:32:56;;;;;;;9.70;5.07;;;24.50;99.90;;;;;;5071761;28;20037;-72
2022/07/29 09:35:25;;;;;;;6.75;5.32;;;24.70;99.90;;;;;;5071049;28;20040;-72
2022/07/29 09:37:51;;;;;;;8.88;5.03;;;25.10;99.90;;;;;;5053059;28;20115;-74
2022/07/29 09:40:25;;;;;;;9.63;5.70;;;25.40;99.90;;;;;;5071682;28;20037;-72
2022/07/29 09:42:56;;;;;;;7.60;5.88;;;25.40;99.90;;;;;;5071017;28;20017;-72
2022/07/29 09:45:33;;;;;;;10.23;5.70;;;25.40;99.90;;;;;;5071355;28;20391;-72
2022/07/29 09:48:12;;;;;;;15.75;5.80;;;25.50;99.90;;;;;;5070728;28;20431;-72
2022/07/29 09:50:43;;;;;;;9.05;5.53;;;25.60;99.90;;;;;;5071921;28;20046;-71
2022/07/29 09:53:10;;;;;;;10.25;5.93;;;25.70;99.90;;;;;;5071385;28;20028;-73
2022/07/29 09:55:52;;;;;;;8.10;5.53;;;25.70;99.90;;;;;;5071436;28;20386;-74
2022/07/29 09:58:20;;;;;;;14.82;5.82;;;25.60;99.90;;;;;;5052735;28;20478;-72
2022/07/29 10:00:47;;;;;;;12.15;5.43;;;25.60;99.90;;;;;;5070448;28;20052;-76
2022/07/29 10:03:13;;;;;;;8.07;5.75;;;25.80;99.90;;;;;;5071436;28;20029;-72
2022/07/29 10:05:40;;;;;;;11.55;6.10;;;26.10;99.90;;;;;;5070426;28;20063;-72
2022/07/29 10:08:07;;;;;;;10.02;6.15;;;26.20;99.90;;;;;;5070287;28;20029;-72
2022/07/29 10:10:39;;;;;;;9.63;6.28;;;26.20;99.90;;;;;;5070952;28;20529;-72
2022/07/29 10:13:08;;;;;;;7.95;6.10;;;25.90;99.90;;;;;;5052280;28;20028;-73
2022/07/29 10:15:38;;;;;;;8.68;5.80;;;25.60;99.90;;;;;;5070662;28;20106;-72
2022/07/29 10:18:04;;;;;;;14.00;6.32;;;25.70;99.90;;;;;;5070164;28;20024;-74
2022/07/29 10:20:30;;;;;;;11.25;6.40;;;26.00;99.90;;;;;;5071048;28;20499;-74
2022/07/29 10:22:57;;;;;;;8.63;6.25;;;26.00;99.90;;;;;;5069875;28;20418;-72
2022/07/29 10:25:24;;;;;;;13.95;6.60;;;26.20;99.90;;;;;;5070144;28;20028;-73
2022/07/29 10:27:53;;;;;;;11.00;6.00;;;26.40;99.90;;;;;;5070309;28;20033;-73
2022/07/29 10:30:20;;;;;;;9.48;6.15;;;26.70;99.90;;;;;;5070454;28;20036;-74
2022/07/29 10:33:16;;;;;;;10.57;6.32;;;26.70;99.90;;;;;;5070343;28;20086;-76
2022/07/29 10:36:03;;;;;;;13.52;6.25;;;26.60;99.90;;;;;;5070608;28;20024;-73
2022/07/29 10:38:44;;;;;;;12.13;6.47;;;26.90;99.90;;;;;;5066780;28;20146;-74
2022/07/29 10:41:28;;;;;;;11.88;5.82;;;26.90;99.90;;;;;;5069821;28;20059;-73
2022/07/29 10:43:59;;;;;;;9.52;5.75;;;26.70;99.90;;;;;;5069524;28;20029;-73
2022/07/29 10:46:26;;;;;;;9.77;6.32;;;26.60;99.90;;;;;;5070058;28;20033;-74
2022/07/29 10:49:17;;;;;;;10.48;6.15;;;26.70;99.90;;;;;;5066987;28;20063;-74
2022/07/29 10:51:59;;;;;;;7.53;5.97;;;26.50;99.90;;;;;;5065511;28;20029;-72
2022/07/29 10:54:41;;;;;;;12.80;6.55;;;26.30;99.90;;;;;;5064886;28;20043;-74
2022/07/29 10:57:30;;;;;;;9.65;6.00;;;26.30;99.90;;;;;;5071357;28;20023;-71
2022/07/29 11:00:05;;;;;;;9.32;6.60;;;26.70;99.90;;;;;;5066716;28;20075;-73
2022/07/29 11:02:34;;;;;;;9.30;6.45;;;27.20;99.60;;;;;;5068690;28;20036;-71
2022/07/29 11:04:59;;;;;;;8.32;6.38;;;27.50;98.40;;;;;;5068261;28;20023;-72
2022/07/29 11:07:26;;;;;;;8.63;6.20;;;27.30;98.40;;;;;;5069226;28;20037;-76
2022/07/29 11:10:16;;;;;;;10.63;6.07;;;27.20;97.80;;;;;;5066549;28;20055;-72
2022/07/29 11:12:42;;;;;;;8.32;6.10;;;27.20;97.50;;;;;;5067224;28;20493;-75
2022/07/29 11:15:20;;;;;;;8.23;6.40;;;27.40;97.80;;;;;;5049392;28;20070;-74
2022/07/29 11:17:57;;;;;;;9.30;6.70;;;27.50;98.50;;;;;;5064970;28;20518;-73
2022/07/29 11:20:47;;;;;;;12.52;6.45;;;27.30;98.10;;;;;;5068565;28;20024;-72
2022/07/29 11:23:31;;;;;;;9.47;6.90;;;27.40;97.30;;;;;;5067196;28;20024;-71
2022/07/29 11:26:20;;;;;;;12.20;6.80;;;27.10;96.70;;;;;;5058013;28;20074;-70
2022/07/29 11:28:59;;;;;;;9.15;6.22;;;26.80;96.90;;;;;;5068758;28;20032;-72
2022/07/29 11:31:42;;;;;;;8.63;7.00;;;26.80;96.80;;;;;;5069351;28;20179;-71
2022/07/29 11:34:29;;;;;;;15.18;7.20;;;26.70;97.70;;;;;;5068698;28;20043;-71
2022/07/29 11:37:10;;;;;;;9.48;7.35;;;26.70;98.60;;;;;;5062877;28;20033;-72
2022/07/29 11:39:47;;;;;;;10.00;7.30;;;26.50;97.80;;;;;;5062305;28;20041;-71
2022/07/29 11:42:16;;;;;;;9.38;7.28;;;26.30;98.10;;;;;;5068143;28;20327;-71
2022/07/29 11:44:58;;;;;;;10.65;7.22;;;26.30;98.70;;;;;;5058671;28;20033;-70
2022/07/29 11:47:38;;;;;;;16.90;7.32;;;26.40;98.00;;;;;;5062097;28;20395;-72
2022/07/29 11:50:07;;;;;;;8.50;6.88;;;26.30;99.90;;;;;;5062934;28;20040;-73
2022/07/29 11:52:33;;;;;;;8.15;6.65;;;26.10;99.20;;;;;;5050036;28;20072;-70
2022/07/29 11:55:02;;;;;;;11.43;7.60;;;26.20;99.70;;;;;;5068634;28;20516;-70
2022/07/29 11:57:28;;;;;;;12.43;7.18;;;26.00;98.60;;;;;;5067674;28;20590;-70
2022/07/29 11:59:57;;;;;;;10.95;7.65;;;25.90;99.30;;;;;;5066623;28;20056;-71
2022/07/29 12:02:22;;;;;;;14.57;7.28;;;25.70;99.60;;;;;;5068978;28;20021;-72
2022/07/29 12:04:56;;;;;;;10.65;6.97;;;25.60;99.90;;;;;;5067186;28;20386;-72
2022/07/29 12:07:32;;;;;;;11.45;7.15;;;25.40;99.90;;;;;;5066499;28;20111;-70
2022/07/29 12:09:58;;;;;;;15.23;7.65;;;25.30;99.90;;;;;;5066100;28;20043;-71
2022/07/29 12:12:24;;;;;;;13.48;7.70;;;25.20;99.90;;;;;;5065673;28;20037;-72
2022/07/29 12:14:50;;;;;;;11.18;7.97;;;25.10;99.90;;;;;;5064312;28;20036;-72
2022/07/29 12:17:33;;;;;;;9.85;7.30;;;25.00;99.90;;;;;;5066567;28;20056;-71
2022/07/29 12:20:02;;;;;;;10.70;7.72;;;24.90;99.90;;;;;;5064242;28;20090;-71
2022/07/29 12:22:33;;;;;;;13.40;7.72;;;24.80;99.90;;;;;;5067161;28;20036;-71
2022/07/29 12:25:04;;;;;;;9.90;7.57;;;24.80;99.90;;;;;;5068187;28;20025;-71
2022/07/29 12:27:31;;;;;;;11.25;7.80;;;24.70;99.90;;;;;;5066874;28;20024;-72
2022/07/29 12:30:05;;;;;;;9.10;7.85;;;24.80;99.90;;;;;;5069032;28;20033;-71
2022/07/29 12:32:40;;;;;;;11.70;8.07;;;24.70;99.90;;;;;;5053157;28;20035;-71
2022/07/29 12:35:09;;;;;;;12.82;8.18;;;24.80;99.90;;;;;;5056142;28;20036;-72
2022/07/29 12:37:36;;;;;;;11.90;7.82;;;24.70;99.90;;;;;;5052434;28;20112;-72
2022/07/29 12:40:05;;;;;;;11.52;7.75;;;24.60;99.90;;;;;;5067723;28;20112;-72
2022/07/29 12:42:31;;;;;;;13.55;8.18;;;24.50;99.90;;;;;;5066098;28;20478;-71
2022/07/29 12:44:57;;;;;;;12.80;8.10;;;24.50;99.90;;;;;;5067251;28;20146;-74
2022/07/29 12:47:23;;;;;;;13.02;8.13;;;24.50;99.90;;;;;;5065077;28;20139;-71
2022/07/29 12:49:50;;;;;;;13.05;7.72;;;24.40;99.90;;;;;;5071845;28;20028;-71
2022/07/29 12:52:33;;;;;;;12.02;8.27;;;24.40;99.90;;;;;;5069162;28;20838;-72
2022/07/29 12:55:00;;;;;;;12.93;7.72;;;24.50;99.90;;;;;;5060914;28;20367;-73